createdAt,value
2023-03-02T00:03:35.188Z,101013.02
2023-03-02T00:08:38.864Z,101011.35
2023-03-02T00:13:42.572Z,101011.20
2023-03-02T00:18:45.133Z,101003.30
2023-03-02T00:23:47.625Z,100996.62
2023-03-02T00:28:50.161Z,100996.48
2023-03-02T00:33:56.285Z,100983.91
2023-03-02T00:38:58.855Z,100986.63
2023-03-02T00:44:01.380Z,100981.79
2023-03-02T00:49:03.968Z,100978.22
2023-03-02T00:54:06.533Z,100971.21
2023-03-02T00:59:26.400Z,100973.42
2023-03-02T01:04:38.568Z,100969.77
2023-03-02T01:09:43.235Z,100967.16
2023-03-02T01:14:48.473Z,100965.96
2023-03-02T01:19:52.310Z,100964.56
2023-03-02T01:24:54.793Z,100966.45
2023-03-02T01:29:57.307Z,100968.67
2023-03-02T01:34:59.852Z,100969.55
2023-03-02T01:40:05.728Z,100966.29
2023-03-02T01:45:45.556Z,100954.89
2023-03-02T01:50:48.316Z,100948.80
2023-03-02T01:55:51.210Z,100940.14
2023-03-02T02:00:55.582Z,100937.16
2023-03-02T02:06:18.029Z,100936.74
2023-03-02T02:11:20.762Z,100931.84
2023-03-02T02:16:23.329Z,100927.06
2023-03-02T02:21:28.069Z,100929.52
2023-03-02T02:26:40.791Z,100930.99
2023-03-02T02:31:57.382Z,100928.88
2023-03-02T02:37:06.903Z,100927.43
2023-03-02T02:42:19.674Z,100924.77
2023-03-02T02:47:22.828Z,100922.45
2023-03-02T02:52:28.183Z,100915.42
2023-03-02T02:57:31.022Z,100911.21
2023-03-02T03:02:39.810Z,100908.40
2023-03-02T03:07:43.069Z,100912.64
2023-03-02T03:12:46.272Z,100923.52
2023-03-02T03:17:56.040Z,100926.38
2023-03-02T03:23:00.708Z,100928.77
2023-03-02T03:28:04.012Z,100923.09
2023-03-02T03:33:06.752Z,100922.52
2023-03-02T03:38:09.266Z,100923.90
2023-03-02T03:43:13.707Z,100922.73
2023-03-02T03:48:16.163Z,100916.80
2023-03-02T03:53:18.725Z,100921.69
2023-03-02T03:58:21.278Z,100913.86
2023-03-02T04:03:23.857Z,100914.29
2023-03-02T04:08:26.437Z,100912.11
2023-03-02T04:13:28.956Z,100918.49
2023-03-02T04:18:31.439Z,100922.14
2023-03-02T04:23:33.929Z,100921.92
2023-03-02T04:28:36.536Z,100918.57
2023-03-02T04:33:39.120Z,100916.11
2023-03-02T04:38:41.739Z,100908.89
2023-03-02T04:43:44.269Z,100910.83
2023-03-02T04:48:46.983Z,100913.59
2023-03-02T04:53:55.173Z,100912.58
2023-03-02T04:58:58.193Z,100912.80
2023-03-02T05:04:03.119Z,100916.46
2023-03-02T05:09:06.190Z,100912.15
2023-03-02T05:14:11.820Z,100908.50
2023-03-02T05:19:14.707Z,100910.20
2023-03-02T05:24:17.702Z,100913.80
2023-03-02T05:29:20.285Z,100917.29
2023-03-02T05:34:22.866Z,100914.58
2023-03-02T05:39:25.429Z,100915.55
2023-03-02T05:44:27.943Z,100922.42
2023-03-02T05:49:30.415Z,100919.31
2023-03-02T05:54:32.920Z,100917.19
2023-03-02T05:59:35.551Z,100920.23
2023-03-02T06:04:43.022Z,100924.02
2023-03-02T06:09:45.662Z,100929.23
2023-03-02T06:14:48.847Z,100933.12
2023-03-02T06:19:51.348Z,100926.44
2023-03-02T06:24:56.611Z,100925.59
2023-03-02T06:29:59.211Z,100933.02
2023-03-02T06:35:03.549Z,100930.59
2023-03-02T06:40:10.817Z,100928.70
2023-03-02T06:45:13.398Z,100925.52
2023-03-02T06:50:16.042Z,100924.52
2023-03-02T06:55:18.660Z,100924.50
2023-03-02T07:00:28.265Z,100923.60
2023-03-02T07:05:33.920Z,100927.29
2023-03-02T07:10:37.874Z,100926.33
2023-03-02T07:15:40.583Z,100923.96
2023-03-02T07:20:43.159Z,100925.22
2023-03-02T07:25:45.700Z,100926.92
2023-03-02T07:30:48.282Z,100926.70
2023-03-02T07:35:50.996Z,100931.47
2023-03-02T07:40:53.701Z,100928.94
2023-03-02T07:45:59.683Z,100932.81
2023-03-02T07:51:04.514Z,100938.43
2023-03-02T07:56:11.443Z,100937.63
2023-03-02T08:01:15.017Z,100939.21
2023-03-02T08:06:17.924Z,100942.40
2023-03-02T08:11:20.485Z,100943.84
2023-03-02T08:16:24.793Z,100938.84
2023-03-02T08:21:28.834Z,100945.47
2023-03-02T08:26:31.425Z,100947.13
2023-03-02T08:31:34.304Z,100951.51
2023-03-02T08:36:37.061Z,100953.66
2023-03-02T08:41:39.887Z,100949.20
2023-03-02T08:46:42.415Z,100948.45
2023-03-02T08:51:46.045Z,100943.16
2023-03-02T08:56:49.253Z,100942.19
2023-03-02T09:01:51.744Z,100942.39
2023-03-02T09:06:54.302Z,100938.73
2023-03-02T09:11:56.916Z,100936.98
2023-03-02T09:16:59.517Z,100936.10
2023-03-02T09:22:02.105Z,100936.10
2023-03-02T09:27:04.655Z,100927.30
2023-03-02T09:32:07.217Z,100919.70
2023-03-02T09:37:09.758Z,100920.06
2023-03-02T09:42:50.844Z,100912.80
2023-03-02T09:47:58.405Z,100917.31
2023-03-02T09:53:23.871Z,100913.50
2023-03-02T09:58:34.293Z,100906.41
2023-03-02T10:04:01.384Z,100898.78
2023-03-02T10:09:03.990Z,100893.92
2023-03-02T10:14:24.138Z,100895.65
2023-03-02T10:19:41.696Z,100887.34
2023-03-02T10:25:01.868Z,100889.05
2023-03-02T10:30:21.689Z,100884.35
2023-03-02T10:35:26.848Z,100882.23
2023-03-02T10:41:03.335Z,100882.65
2023-03-02T10:46:08.705Z,100880.16
2023-03-02T10:51:22.046Z,100880.36
2023-03-02T10:56:24.690Z,100871.80
2023-03-02T11:01:27.243Z,100862.13
2023-03-02T11:06:30.208Z,100860.82
2023-03-02T11:11:33.596Z,100857.78
2023-03-02T11:16:36.446Z,100853.52
2023-03-02T11:21:58.453Z,100846.66
2023-03-02T11:27:07.999Z,100840.77
2023-03-02T11:32:20.058Z,100839.29
2023-03-02T11:37:29.564Z,100833.11
2023-03-02T11:42:36.153Z,100824.33
2023-03-02T11:47:43.252Z,100820.36
2023-03-02T11:52:52.120Z,100822.24
2023-03-02T12:03:06.564Z,100818.06
2023-03-02T12:08:15.185Z,100812.02
2023-03-02T12:13:26.020Z,100810.80
2023-03-02T12:18:44.086Z,100804.83
2023-03-02T12:23:49.792Z,100806.59
2023-03-02T12:29:06.711Z,100800.50
2023-03-02T12:34:24.624Z,100791.27
2023-03-02T12:39:33.048Z,100780.89
2023-03-02T12:44:55.269Z,100776.20
2023-03-02T12:50:01.920Z,100772.88
2023-03-02T12:55:18.096Z,100763.08
2023-03-02T13:00:24.780Z,100758.57
2023-03-02T13:05:33.494Z,100757.95
2023-03-02T13:10:40.199Z,100755.15
2023-03-02T13:15:53.034Z,100754.44
2023-03-02T13:20:55.776Z,100744.75
2023-03-02T13:26:00.997Z,100740.84
2023-03-02T13:31:07.073Z,100733.11
2023-03-02T13:36:17.091Z,100717.95
2023-03-02T13:41:27.726Z,100718.55
2023-03-02T13:46:36.165Z,100708.67
2023-03-02T13:51:47.583Z,100701.77
2023-03-02T13:56:52.167Z,100691.31
2023-03-02T14:01:55.288Z,100684.62
2023-03-02T14:06:57.809Z,100680.52
2023-03-02T14:12:00.335Z,100680.74
2023-03-02T14:17:16.710Z,100672.48
2023-03-02T14:22:20.125Z,100666.04
2023-03-02T14:27:28.259Z,100663.67
2023-03-02T14:32:31.272Z,100660.45
2023-03-02T14:37:33.931Z,100657.93
2023-03-02T14:42:36.442Z,100658.16
2023-03-02T14:47:39.668Z,100649.02
2023-03-02T14:52:48.115Z,100646.84
2023-03-02T14:57:54.608Z,100645.33
2023-03-02T15:02:58.526Z,100640.48
2023-03-02T15:08:01.213Z,100636.21
2023-03-02T15:13:03.842Z,100631.83
2023-03-02T15:18:06.813Z,100627.95
2023-03-02T15:23:09.357Z,100620.42
2023-03-02T15:28:11.871Z,100611.01
2023-03-02T15:33:14.412Z,100604.96
2023-03-02T15:38:16.983Z,100599.58
2023-03-02T15:43:19.591Z,100594.66
2023-03-02T15:48:22.099Z,100594.86
2023-03-02T15:53:25.206Z,100589.82
2023-03-02T15:58:27.688Z,100592.48
2023-03-02T16:03:30.206Z,100593.91
2023-03-02T16:08:32.745Z,100581.45
2023-03-02T16:13:35.592Z,100576.95
2023-03-02T16:18:38.097Z,100574.89
2023-03-02T16:23:40.579Z,100575.56
2023-03-02T16:28:43.204Z,100578.79
2023-03-02T16:33:46.952Z,100581.99
2023-03-02T16:38:49.495Z,100584.48
2023-03-02T16:43:54.811Z,100582.83
2023-03-02T16:48:57.927Z,100576.33
2023-03-02T16:54:00.592Z,100579.30
2023-03-02T16:59:03.164Z,100574.33
2023-03-02T17:04:06.184Z,100576.27
2023-03-02T17:09:08.821Z,100581.26
2023-03-02T17:14:11.835Z,100579.55
2023-03-02T17:19:14.489Z,100582.32
2023-03-02T17:24:17.056Z,100579.39
2023-03-02T17:29:19.716Z,100578.02
2023-03-02T17:34:22.312Z,100574.05
2023-03-02T17:39:25.196Z,100569.74
2023-03-02T17:44:27.826Z,100566.30
2023-03-02T17:49:31.127Z,100558.39
2023-03-02T17:54:33.654Z,100555.61
2023-03-02T17:59:36.502Z,100556.13
2023-03-02T18:04:39.139Z,100552.84
2023-03-02T18:09:43.190Z,100552.98
2023-03-02T18:14:45.767Z,100550.54
2023-03-02T18:19:48.847Z,100550.52
2023-03-02T18:24:52.847Z,100552.55
2023-03-02T18:29:55.526Z,100551.80
2023-03-02T18:34:58.188Z,100550.05
2023-03-02T18:40:00.976Z,100547.78
2023-03-02T18:45:05.005Z,100548.11
2023-03-02T18:50:08.108Z,100548.76
2023-03-02T18:55:11.373Z,100549.23
2023-03-02T19:00:21.634Z,100552.14
2023-03-02T19:05:27.025Z,100558.14
2023-03-02T19:10:29.638Z,100551.23
2023-03-02T19:15:34.755Z,100549.78
2023-03-02T19:20:37.314Z,100546.11
2023-03-02T19:25:40.115Z,100545.19
2023-03-02T19:30:42.752Z,100539.34
2023-03-02T19:35:45.543Z,100537.42
2023-03-02T19:40:48.118Z,100537.37
2023-03-02T19:45:50.792Z,100525.66
2023-03-02T19:50:53.429Z,100526.01
2023-03-02T19:56:00.491Z,100526.48
2023-03-02T20:01:04.360Z,100530.89
2023-03-02T20:06:07.051Z,100530.69
2023-03-02T20:11:11.200Z,100527.27
2023-03-02T20:16:14.270Z,100521.14
2023-03-02T20:21:16.957Z,100519.59
2023-03-02T20:26:20.269Z,100516.44
2023-03-02T20:31:24.822Z,100506.94
2023-03-02T20:36:31.598Z,100498.63
2023-03-02T20:41:35.147Z,100503.71
2023-03-02T20:46:42.573Z,100500.38
2023-03-02T20:51:52.595Z,100497.21
2023-03-02T20:56:55.781Z,100493.37
2023-03-02T21:01:58.588Z,100486.61
2023-03-02T21:07:01.342Z,100490.84
2023-03-02T21:12:05.402Z,100485.09
2023-03-02T21:17:08.770Z,100482.46
2023-03-02T21:22:11.326Z,100479.48
2023-03-02T21:27:13.947Z,100485.13
2023-03-02T21:32:16.793Z,100478.14
2023-03-02T21:37:19.405Z,100469.11
2023-03-02T21:42:21.927Z,100456.15
2023-03-02T21:47:24.455Z,100446.92
2023-03-02T21:52:27.440Z,100451.02
2023-03-02T21:57:30.404Z,100453.90
2023-03-02T22:02:32.934Z,100460.47
2023-03-02T22:07:35.536Z,100457.34
2023-03-02T22:12:38.090Z,100450.44
2023-03-02T22:17:41.981Z,100449.17
2023-03-02T22:22:44.915Z,100438.15
2023-03-02T22:27:47.514Z,100434.98
2023-03-02T22:32:50.145Z,100425.45
2023-03-02T22:38:02.019Z,100421.36
2023-03-02T22:43:25.492Z,100415.73
2023-03-02T22:48:30.161Z,100413.19
2023-03-02T22:53:34.053Z,100412.33
2023-03-02T22:58:47.964Z,100402.29
2023-03-02T23:04:15.219Z,100396.48
2023-03-02T23:09:21.730Z,100400.55
2023-03-02T23:14:47.574Z,100394.11
2023-03-02T23:19:51.079Z,100388.05
2023-03-02T23:24:53.955Z,100378.70
2023-03-02T23:29:56.617Z,100364.83
2023-03-02T23:34:59.158Z,100363.88
2023-03-02T23:40:01.676Z,100355.94
2023-03-02T23:45:05.333Z,100349.11
2023-03-02T23:50:08.846Z,100339.75
2023-03-02T23:55:11.694Z,100328.42
